sensor_id;sensor_type;location;lat;lon;timestamp;temperature;humidity
9939;DHT22;5008;50.656;7.188;2023-06-22T04:03:14;20.50;99.90
9939;DHT22;5008;50.656;7.188;2023-06-22T04:05:41;20.50;99.90
9939;DHT22;5008;50.656;7.188;2023-06-22T04:08:30;20.40;99.90
9939;DHT22;5008;50.656;7.188;2023-06-22T04:10:56;20.40;99.90
9939;DHT22;5008;50.656;7.188;2023-06-22T04:13:23;20.40;99.90
9939;DHT22;5008;50.656;7.188;2023-06-22T04:15:50;20.50;99.90
9939;DHT22;5008;50.656;7.188;2023-06-22T04:18:18;20.50;99.90
9939;DHT22;5008;50.656;7.188;2023-06-22T04:20:45;20.50;99.90
9939;DHT22;5008;50.656;7.188;2023-06-22T04:23:12;20.50;99.90
9939;DHT22;5008;50.656;7.188;2023-06-22T04:25:39;20.40;99.90
9939;DHT22;5008;50.656;7.188;2023-06-22T04:28:05;20.40;99.90
9939;DHT22;5008;50.656;7.188;2023-06-22T04:30:37;20.50;99.90
9939;DHT22;5008;50.656;7.188;2023-06-22T04:33:12;20.50;99.90
9939;DHT22;5008;50.656;7.188;2023-06-22T04:35:40;20.60;99.90
9939;DHT22;5008;50.656;7.188;2023-06-22T04:38:08;20.50;99.90
9939;DHT22;5008;50.656;7.188;2023-06-22T04:40:34;20.50;99.90
9939;DHT22;5008;50.656;7.188;2023-06-22T04:43:01;20.50;99.90
9939;DHT22;5008;50.656;7.188;2023-06-22T04:45:29;20.50;99.90
9939;DHT22;5008;50.656;7.188;2023-06-22T04:47:56;20.40;99.90
9939;DHT22;5008;50.656;7.188;2023-06-22T04:50:24;20.40;99.90
9939;DHT22;5008;50.656;7.188;2023-06-22T04:52:52;20.40;99.90
9939;DHT22;5008;50.656;7.188;2023-06-22T04:55:20;20.40;99.90
9939;DHT22;5008;50.656;7.188;2023-06-22T04:57:47;20.40;99.90
9939;DHT22;5008;50.656;7.188;2023-06-22T05:00:15;20.40;99.90
9939;DHT22;5008;50.656;7.188;2023-06-22T05:02:43;20.50;99.90
9939;DHT22;5008;50.656;7.188;2023-06-22T05:05:11;20.50;99.90
9939;DHT22;5008;50.656;7.188;2023-06-22T05:07:41;20.60;99.90
9939;DHT22;5008;50.656;7.188;2023-06-22T05:10:11;20.70;99.90
9939;DHT22;5008;50.656;7.188;2023-06-22T05:12:39;20.80;99.90
9939;DHT22;5008;50.656;7.188;2023-06-22T05:15:07;20.80;99.90
9939;DHT22;5008;50.656;7.188;2023-06-22T05:17:34;20.90;99.90
9939;DHT22;5008;50.656;7.188;2023-06-22T05:20:01;20.90;99.90
9939;DHT22;5008;50.656;7.188;2023-06-22T05:22:32;20.90;99.90
9939;DHT22;5008;50.656;7.188;2023-06-22T05:24:58;21.00;99.90
9939;DHT22;5008;50.656;7.188;2023-06-22T05:27:26;21.00;99.90
9939;DHT22;5008;50.656;7.188;2023-06-22T05:29:53;21.10;99.90
9939;DHT22;5008;50.656;7.188;2023-06-22T05:32:20;21.10;99.90
9939;DHT22;5008;50.656;7.188;2023-06-22T05:34:47;21.10;99.90
9939;DHT22;5008;50.656;7.188;2023-06-22T05:37:14;21.20;99.90
9939;DHT22;5008;50.656;7.188;2023-06-22T05:39:41;21.20;99.90
9939;DHT22;5008;50.656;7.188;2023-06-22T05:42:09;21.30;99.90
9939;DHT22;5008;50.656;7.188;2023-06-22T05:44:37;21.40;99.90
9939;DHT22;5008;50.656;7.188;2023-06-22T05:47:05;21.40;99.90
9939;DHT22;5008;50.656;7.188;2023-06-22T05:49:32;21.50;99.90
9939;DHT22;5008;50.656;7.188;2023-06-22T05:51:59;21.50;99.90
9939;DHT22;5008;50.656;7.188;2023-06-22T05:54:27;21.50;99.90
9939;DHT22;5008;50.656;7.188;2023-06-22T05:56:54;21.50;99.90
9939;DHT22;5008;50.656;7.188;2023-06-22T05:59:21;21.50;99.90
9939;DHT22;5008;50.656;7.188;2023-06-22T06:01:49;21.50;99.90
9939;DHT22;5008;50.656;7.188;2023-06-22T06:04:16;21.60;99.90
9939;DHT22;5008;50.656;7.188;2023-06-22T06:06:43;21.60;99.90
9939;DHT22;5008;50.656;7.188;2023-06-22T06:09:10;21.70;99.90
9939;DHT22;5008;50.656;7.188;2023-06-22T06:11:38;21.80;99.90
9939;DHT22;5008;50.656;7.188;2023-06-22T06:14:04;21.80;99.90
9939;DHT22;5008;50.656;7.188;2023-06-22T06:16:31;21.90;99.90
9939;DHT22;5008;50.656;7.188;2023-06-22T06:19:00;21.90;99.90
9939;DHT22;5008;50.656;7.188;2023-06-22T06:21:27;22.00;99.90
9939;DHT22;5008;50.656;7.188;2023-06-22T06:23:53;22.00;99.90
9939;DHT22;5008;50.656;7.188;2023-06-22T06:26:20;22.10;99.90
9939;DHT22;5008;50.656;7.188;2023-06-22T06:28:55;22.20;99.90
9939;DHT22;5008;50.656;7.188;2023-06-22T06:31:22;22.20;99.90
9939;DHT22;5008;50.656;7.188;2023-06-22T06:33:49;22.20;99.90
9939;DHT22;5008;50.656;7.188;2023-06-22T06:36:19;22.30;99.90
9939;DHT22;5008;50.656;7.188;2023-06-22T06:38:46;22.30;99.90
9939;DHT22;5008;50.656;7.188;2023-06-22T06:41:14;22.30;99.90
9939;DHT22;5008;50.656;7.188;2023-06-22T06:43:43;22.30;99.90
9939;DHT22;5008;50.656;7.188;2023-06-22T06:46:11;22.40;99.90
9939;DHT22;5008;50.656;7.188;2023-06-22T06:48:37;22.40;99.90
9939;DHT22;5008;50.656;7.188;2023-06-22T06:51:05;22.40;99.90
9939;DHT22;5008;50.656;7.188;2023-06-22T06:53:36;22.50;99.90
9939;DHT22;5008;50.656;7.188;2023-06-22T06:56:03;22.50;99.90
9939;DHT22;5008;50.656;7.188;2023-06-22T06:58:30;22.50;99.90
9939;DHT22;5008;50.656;7.188;2023-06-22T07:00:57;22.50;99.90
9939;DHT22;5008;50.656;7.188;2023-06-22T07:03:24;22.60;99.90
9939;DHT22;5008;50.656;7.188;2023-06-22T07:05:51;22.60;99.90
9939;DHT22;5008;50.656;7.188;2023-06-22T07:08:18;22.60;99.90
9939;DHT22;5008;50.656;7.188;2023-06-22T07:10:46;22.70;99.90
9939;DHT22;5008;50.656;7.188;2023-06-22T07:13:13;22.70;99.90
9939;DHT22;5008;50.656;7.188;2023-06-22T07:15:40;22.70;99.90
9939;DHT22;5008;50.656;7.188;2023-06-22T07:18:07;22.80;99.90
9939;DHT22;5008;50.656;7.188;2023-06-22T07:20:34;22.80;99.90
9939;DHT22;5008;50.656;7.188;2023-06-22T07:23:01;22.80;99.90
9939;DHT22;5008;50.656;7.188;2023-06-22T07:25:28;22.80;99.90
9939;DHT22;5008;50.656;7.188;2023-06-22T07:28:00;22.80;99.90
9939;DHT22;5008;50.656;7.188;2023-06-22T07:30:28;22.90;99.90
9939;DHT22;5008;50.656;7.188;2023-06-22T07:32:55;22.90;99.90
9939;DHT22;5008;50.656;7.188;2023-06-22T07:35:22;23.00;99.90
9939;DHT22;5008;50.656;7.188;2023-06-22T07:37:48;23.00;99.90
9939;DHT22;5008;50.656;7.188;2023-06-22T07:40:15;23.10;99.90
9939;DHT22;5008;50.656;7.188;2023-06-22T07:42:42;23.10;99.90
9939;DHT22;5008;50.656;7.188;2023-06-22T07:45:10;23.20;99.90
9939;DHT22;5008;50.656;7.188;2023-06-22T07:47:37;23.20;99.90
9939;DHT22;5008;50.656;7.188;2023-06-22T07:50:05;23.30;99.90
9939;DHT22;5008;50.656;7.188;2023-06-22T07:52:32;23.30;99.90
9939;DHT22;5008;50.656;7.188;2023-06-22T07:54:59;23.30;99.90
9939;DHT22;5008;50.656;7.188;2023-06-22T07:57:26;23.40;99.90
9939;DHT22;5008;50.656;7.188;2023-06-22T07:59:58;23.50;99.90
9939;DHT22;5008;50.656;7.188;2023-06-22T08:02:27;23.50;99.90
9939;DHT22;5008;50.656;7.188;2023-06-22T08:04:54;23.50;99.90
9939;DHT22;5008;50.656;7.188;2023-06-22T08:07:20;23.50;99.90
9939;DHT22;5008;50.656;7.188;2023-06-22T08:09:48;23.50;99.90
9939;DHT22;5008;50.656;7.188;2023-06-22T08:12:15;23.60;99.90
9939;DHT22;5008;50.656;7.188;2023-06-22T08:14:43;23.60;99.90
9939;DHT22;5008;50.656;7.188;2023-06-22T08:17:11;23.70;99.90
9939;DHT22;5008;50.656;7.188;2023-06-22T08:19:40;23.70;99.90
9939;DHT22;5008;50.656;7.188;2023-06-22T08:22:07;23.80;99.90
9939;DHT22;5008;50.656;7.188;2023-06-22T08:24:34;23.90;99.90
9939;DHT22;5008;50.656;7.188;2023-06-22T08:27:00;24.00;99.90
9939;DHT22;5008;50.656;7.188;2023-06-22T08:29:27;24.10;99.90
9939;DHT22;5008;50.656;7.188;2023-06-22T08:31:54;24.20;99.90
9939;DHT22;5008;50.656;7.188;2023-06-22T08:34:21;24.20;99.90
9939;DHT22;5008;50.656;7.188;2023-06-22T08:36:54;24.40;99.90
9939;DHT22;5008;50.656;7.188;2023-06-22T08:39:21;24.40;99.90
9939;DHT22;5008;50.656;7.188;2023-06-22T08:41:48;24.50;99.90
9939;DHT22;5008;50.656;7.188;2023-06-22T08:44:18;24.50;99.90
9939;DHT22;5008;50.656;7.188;2023-06-22T08:46:45;24.60;99.90
9939;DHT22;5008;50.656;7.188;2023-06-22T08:49:12;24.60;99.90
9939;DHT22;5008;50.656;7.188;2023-06-22T08:51:39;24.60;99.90
9939;DHT22;5008;50.656;7.188;2023-06-22T08:54:07;24.50;99.90
9939;DHT22;5008;50.656;7.188;2023-06-22T08:56:34;24.50;99.90
9939;DHT22;5008;50.656;7.188;2023-06-22T08:59:01;24.60;99.90
9939;DHT22;5008;50.656;7.188;2023-06-22T09:01:28;24.60;99.90
9939;DHT22;5008;50.656;7.188;2023-06-22T09:03:54;24.70;99.90
9939;DHT22;5008;50.656;7.188;2023-06-22T09:06:23;24.60;99.90
9939;DHT22;5008;50.656;7.188;2023-06-22T09:08:50;24.70;99.90
9939;DHT22;5008;50.656;7.188;2023-06-22T09:11:18;24.80;99.90
9939;DHT22;5008;50.656;7.188;2023-06-22T09:13:44;24.90;99.90
9939;DHT22;5008;50.656;7.188;2023-06-22T09:16:11;24.80;99.90
9939;DHT22;5008;50.656;7.188;2023-06-22T09:18:38;24.90;99.90
9939;DHT22;5008;50.656;7.188;2023-06-22T09:21:05;24.90;99.90
9939;DHT22;5008;50.656;7.188;2023-06-22T09:23:32;25.00;99.90
9939;DHT22;5008;50.656;7.188;2023-06-22T09:25:59;24.90;99.90
9939;DHT22;5008;50.656;7.188;2023-06-22T09:28:27;24.90;99.90
9939;DHT22;5008;50.656;7.188;2023-06-22T09:30:54;24.90;99.90
9939;DHT22;5008;50.656;7.188;2023-06-22T09:33:24;24.90;99.90
9939;DHT22;5008;50.656;7.188;2023-06-22T09:35:51;25.00;99.90
9939;DHT22;5008;50.656;7.188;2023-06-22T09:38:18;25.00;99.90
9939;DHT22;5008;50.656;7.188;2023-06-22T09:40:45;25.20;99.90
9939;DHT22;5008;50.656;7.188;2023-06-22T09:43:11;25.10;99.90
9939;DHT22;5008;50.656;7.188;2023-06-22T09:45:40;25.20;99.90
9939;DHT22;5008;50.656;7.188;2023-06-22T09:48:06;25.10;99.90
9939;DHT22;5008;50.656;7.188;2023-06-22T09:50:35;25.10;99.90
9939;DHT22;5008;50.656;7.188;2023-06-22T09:53:02;25.10;99.90
9939;DHT22;5008;50.656;7.188;2023-06-22T09:55:28;24.90;99.90
9939;DHT22;5008;50.656;7.188;2023-06-22T09:57:55;24.90;99.90
9939;DHT22;5008;50.656;7.188;2023-06-22T10:00:22;24.90;99.90
9939;DHT22;5008;50.656;7.188;2023-06-22T10:02:50;24.80;99.90
9939;DHT22;5008;50.656;7.188;2023-06-22T10:05:17;24.80;99.90
9939;DHT22;5008;50.656;7.188;2023-06-22T10:07:44;24.80;99.90
9939;DHT22;5008;50.656;7.188;2023-06-22T10:10:11;24.70;99.90
9939;DHT22;5008;50.656;7.188;2023-06-22T10:12:41;24.70;99.90
9939;DHT22;5008;50.656;7.188;2023-06-22T10:15:10;24.70;99.90
9939;DHT22;5008;50.656;7.188;2023-06-22T10:17:37;24.70;99.90
9939;DHT22;5008;50.656;7.188;2023-06-22T10:20:07;24.70;99.90
9939;DHT22;5008;50.656;7.188;2023-06-22T10:22:38;24.70;99.90
9939;DHT22;5008;50.656;7.188;2023-06-22T10:25:06;24.70;99.90
9939;DHT22;5008;50.656;7.188;2023-06-22T10:27:33;24.60;99.90
9939;DHT22;5008;50.656;7.188;2023-06-22T10:30:00;24.60;99.90
9939;DHT22;5008;50.656;7.188;2023-06-22T10:32:27;24.40;99.90
9939;DHT22;5008;50.656;7.188;2023-06-22T10:34:54;24.40;99.90
9939;DHT22;5008;50.656;7.188;2023-06-22T10:37:23;24.30;99.90
9939;DHT22;5008;50.656;7.188;2023-06-22T10:39:49;24.30;99.90
9939;DHT22;5008;50.656;7.188;2023-06-22T10:42:17;24.20;99.90
9939;DHT22;5008;50.656;7.188;2023-06-22T10:44:43;24.10;99.90
9939;DHT22;5008;50.656;7.188;2023-06-22T10:47:10;24.00;99.90
9939;DHT22;5008;50.656;7.188;2023-06-22T10:49:37;23.80;99.90
9939;DHT22;5008;50.656;7.188;2023-06-22T10:52:05;23.70;99.90
9939;DHT22;5008;50.656;7.188;2023-06-22T10:54:35;23.50;99.90
9939;DHT22;5008;50.656;7.188;2023-06-22T10:57:02;23.10;99.90
9939;DHT22;5008;50.656;7.188;2023-06-22T10:59:29;22.70;99.90
9939;DHT22;5008;50.656;7.188;2023-06-22T11:01:56;22.30;99.90
9939;DHT22;5008;50.656;7.188;2023-06-22T11:04:23;22.00;99.90
9939;DHT22;5008;50.656;7.188;2023-06-22T11:06:50;21.80;99.90
9939;DHT22;5008;50.656;7.188;2023-06-22T11:09:17;21.70;99.90
9939;DHT22;5008;50.656;7.188;2023-06-22T11:11:49;21.70;99.90
9939;DHT22;5008;50.656;7.188;2023-06-22T11:14:16;21.70;99.90
9939;DHT22;5008;50.656;7.188;2023-06-22T11:16:42;21.80;99.90
9939;DHT22;5008;50.656;7.188;2023-06-22T11:19:09;21.80;99.90
9939;DHT22;5008;50.656;7.188;2023-06-22T11:21:36;21.90;99.90
9939;DHT22;5008;50.656;7.188;2023-06-22T11:24:03;21.90;99.90
9939;DHT22;5008;50.656;7.188;2023-06-22T11:26:34;21.90;99.90
9939;DHT22;5008;50.656;7.188;2023-06-22T11:29:02;22.00;99.90
9939;DHT22;5008;50.656;7.188;2023-06-22T11:31:31;22.10;99.90
9939;DHT22;5008;50.656;7.188;2023-06-22T11:33:58;22.20;99.90
9939;DHT22;5008;50.656;7.188;2023-06-22T11:36:25;22.50;99.90
9939;DHT22;5008;50.656;7.188;2023-06-22T11:38:52;22.60;99.90
9939;DHT22;5008;50.656;7.188;2023-06-22T11:41:19;22.60;99.90
9939;DHT22;5008;50.656;7.188;2023-06-22T11:43:46;22.70;99.90
9939;DHT22;5008;50.656;7.188;2023-06-22T11:46:14;22.70;99.90
9939;DHT22;5008;50.656;7.188;2023-06-22T11:48:41;22.60;99.90
9939;DHT22;5008;50.656;7.188;2023-06-22T11:51:08;22.50;99.90
9939;DHT22;5008;50.656;7.188;2023-06-22T11:53:35;22.50;99.90
9939;DHT22;5008;50.656;7.188;2023-06-22T11:56:02;22.50;99.90
9939;DHT22;5008;50.656;7.188;2023-06-22T11:58:28;22.60;99.90
9939;DHT22;5008;50.656;7.188;2023-06-22T12:00:55;22.50;99.90
9939;DHT22;5008;50.656;7.188;2023-06-22T12:03:23;22.60;99.90
9939;DHT22;5008;50.656;7.188;2023-06-22T12:05:51;22.50;99.90
9939;DHT22;5008;50.656;7.188;2023-06-22T12:08:17;22.50;99.90
9939;DHT22;5008;50.656;7.188;2023-06-22T12:10:44;22.50;99.90
9939;DHT22;5008;50.656;7.188;2023-06-22T12:13:11;22.50;99.90
9939;DHT22;5008;50.656;7.188;2023-06-22T12:15:38;22.40;99.90
9939;DHT22;5008;50.656;7.188;2023-06-22T12:18:05;22.40;99.90
9939;DHT22;5008;50.656;7.188;2023-06-22T12:20:33;22.50;99.90
9939;DHT22;5008;50.656;7.188;2023-06-22T12:23:01;22.60;99.90
9939;DHT22;5008;50.656;7.188;2023-06-22T12:25:27;22.60;99.90
9939;DHT22;5008;50.656;7.188;2023-06-22T12:27:54;22.60;99.90
9939;DHT22;5008;50.656;7.188;2023-06-22T12:30:21;22.60;99.90
9939;DHT22;5008;50.656;7.188;2023-06-22T12:32:48;22.70;99.90
9939;DHT22;5008;50.656;7.188;2023-06-22T12:35:15;22.80;99.90
9939;DHT22;5008;50.656;7.188;2023-06-22T12:37:43;22.90;99.90
9939;DHT22;5008;50.656;7.188;2023-06-22T12:40:10;22.90;99.90
9939;DHT22;5008;50.656;7.188;2023-06-22T12:42:37;23.10;99.90
9939;DHT22;5008;50.656;7.188;2023-06-22T12:45:05;23.30;99.90
9939;DHT22;5008;50.656;7.188;2023-06-22T12:47:32;23.60;99.90
9939;DHT22;5008;50.656;7.188;2023-06-22T12:49:59;23.60;99.90
9939;DHT22;5008;50.656;7.188;2023-06-22T12:52:26;23.70;99.90
9939;DHT22;5008;50.656;7.188;2023-06-22T12:54:54;23.80;99.90
9939;DHT22;5008;50.656;7.188;2023-06-22T12:57:20;23.70;99.90
9939;DHT22;5008;50.656;7.188;2023-06-22T12:59:47;23.60;99.90
9939;DHT22;5008;50.656;7.188;2023-06-22T13:02:14;23.60;99.90
9939;DHT22;5008;50.656;7.188;2023-06-22T13:04:41;23.80;99.90
9939;DHT22;5008;50.656;7.188;2023-06-22T13:07:28;24.10;99.90
9939;DHT22;5008;50.656;7.188;2023-06-22T13:09:56;24.40;99.90
9939;DHT22;5008;50.656;7.188;2023-06-22T13:12:23;24.60;99.90
9939;DHT22;5008;50.656;7.188;2023-06-22T13:14:50;24.60;99.90
9939;DHT22;5008;50.656;7.188;2023-06-22T13:17:17;24.70;99.90
9939;DHT22;5008;50.656;7.188;2023-06-22T13:19:44;24.80;99.90
9939;DHT22;5008;50.656;7.188;2023-06-22T13:22:26;24.90;99.90
9939;DHT22;5008;50.656;7.188;2023-06-22T13:24:55;24.90;99.90
9939;DHT22;5008;50.656;7.188;2023-06-22T13:27:22;25.20;99.90
9939;DHT22;5008;50.656;7.188;2023-06-22T13:29:49;25.60;99.90
9939;DHT22;5008;50.656;7.188;2023-06-22T13:32:16;26.00;99.90
9939;DHT22;5008;50.656;7.188;2023-06-22T13:34:43;26.30;99.90
9939;DHT22;5008;50.656;7.188;2023-06-22T13:37:10;26.90;99.90
9939;DHT22;5008;50.656;7.188;2023-06-22T13:39:37;26.90;99.90
9939;DHT22;5008;50.656;7.188;2023-06-22T13:42:06;27.10;99.90
9939;DHT22;5008;50.656;7.188;2023-06-22T13:44:33;27.10;99.90
9939;DHT22;5008;50.656;7.188;2023-06-22T13:46:59;26.90;99.90
9939;DHT22;5008;50.656;7.188;2023-06-22T13:49:26;26.60;99.90
9939;DHT22;5008;50.656;7.188;2023-06-22T13:51:53;26.20;99.90
9939;DHT22;5008;50.656;7.188;2023-06-22T13:54:20;26.00;99.90
9939;DHT22;5008;50.656;7.188;2023-06-22T13:56:46;25.90;99.90
9939;DHT22;5008;50.656;7.188;2023-06-22T13:59:15;25.70;99.90
9939;DHT22;5008;50.656;7.188;2023-06-22T14:01:41;25.50;99.90
9939;DHT22;5008;50.656;7.188;2023-06-22T14:04:09;25.50;99.90
9939;DHT22;5008;50.656;7.188;2023-06-22T14:06:37;25.20;99.90
9939;DHT22;5008;50.656;7.188;2023-06-22T14:09:04;25.10;99.90
9939;DHT22;5008;50.656;7.188;2023-06-22T14:11:31;25.00;99.90
9939;DHT22;5008;50.656;7.188;2023-06-22T14:13:57;24.80;99.90
9939;DHT22;5008;50.656;7.188;2023-06-22T14:16:26;24.70;99.90
9939;DHT22;5008;50.656;7.188;2023-06-22T14:18:52;24.60;99.90
9939;DHT22;5008;50.656;7.188;2023-06-22T14:21:19;24.50;99.90
9939;DHT22;5008;50.656;7.188;2023-06-22T14:23:46;24.40;99.90
9939;DHT22;5008;50.656;7.188;2023-06-22T14:26:14;24.20;99.90
9939;DHT22;5008;50.656;7.188;2023-06-22T14:28:43;24.10;99.90
9939;DHT22;5008;50.656;7.188;2023-06-22T14:31:13;24.00;99.90
9939;DHT22;5008;50.656;7.188;2023-06-22T14:33:45;23.70;99.90
9939;DHT22;5008;50.656;7.188;2023-06-22T14:36:12;23.50;99.90
9939;DHT22;5008;50.656;7.188;2023-06-22T14:38:39;23.40;99.90
9939;DHT22;5008;50.656;7.188;2023-06-22T14:41:06;23.20;99.90
9939;DHT22;5008;50.656;7.188;2023-06-22T14:43:32;23.10;99.90
9939;DHT22;5008;50.656;7.188;2023-06-22T14:46:00;23.10;99.90
9939;DHT22;5008;50.656;7.188;2023-06-22T14:48:27;23.10;99.90
9939;DHT22;5008;50.656;7.188;2023-06-22T14:50:55;23.00;99.90
9939;DHT22;5008;50.656;7.188;2023-06-22T14:53:21;22.90;99.90
9939;DHT22;5008;50.656;7.188;2023-06-22T14:55:48;22.90;99.90
9939;DHT22;5008;50.656;7.188;2023-06-22T14:58:15;23.00;99.90
9939;DHT22;5008;50.656;7.188;2023-06-22T15:00:42;22.80;99.90
9939;DHT22;5008;50.656;7.188;2023-06-22T15:03:09;22.40;99.90
9939;DHT22;5008;50.656;7.188;2023-06-22T15:05:42;22.20;99.90
9939;DHT22;5008;50.656;7.188;2023-06-22T15:08:11;22.10;99.90
9939;DHT22;5008;50.656;7.188;2023-06-22T15:10:41;22.10;99.90
9939;DHT22;5008;50.656;7.188;2023-06-22T15:13:23;22.00;99.90
9939;DHT22;5008;50.656;7.188;2023-06-22T15:15:53;22.00;99.90
9939;DHT22;5008;50.656;7.188;2023-06-22T15:18:28;21.90;99.90
9939;DHT22;5008;50.656;7.188;2023-06-22T15:21:02;21.90;99.90
9939;DHT22;5008;50.656;7.188;2023-06-22T15:23:37;21.90;99.90
9939;DHT22;5008;50.656;7.188;2023-06-22T15:26:20;21.90;99.90
9939;DHT22;5008;50.656;7.188;2023-06-22T15:28:47;21.90;99.90
9939;DHT22;5008;50.656;7.188;2023-06-22T15:31:15;21.80;99.90
9939;DHT22;5008;50.656;7.188;2023-06-22T15:33:42;21.70;99.90
9939;DHT22;5008;50.656;7.188;2023-06-22T15:36:09;21.70;99.90
9939;DHT22;5008;50.656;7.188;2023-06-22T15:38:39;21.70;99.90
9939;DHT22;5008;50.656;7.188;2023-06-22T15:41:06;21.60;99.90
9939;DHT22;5008;50.656;7.188;2023-06-22T15:43:33;21.50;99.90
9939;DHT22;5008;50.656;7.188;2023-06-22T15:46:00;21.40;99.90
9939;DHT22;5008;50.656;7.188;2023-06-22T15:48:26;21.30;99.90
9939;DHT22;5008;50.656;7.188;2023-06-22T15:50:53;21.20;99.90
9939;DHT22;5008;50.656;7.188;2023-06-22T15:53:20;21.10;99.90
9939;DHT22;5008;50.656;7.188;2023-06-22T15:55:50;21.20;99.90
9939;DHT22;5008;50.656;7.188;2023-06-22T15:58:18;21.10;99.90
9939;DHT22;5008;50.656;7.188;2023-06-22T16:00:45;21.10;99.90
9939;DHT22;5008;50.656;7.188;2023-06-22T16:03:14;21.10;99.90
9939;DHT22;5008;50.656;7.188;2023-06-22T16:05:42;21.10;99.90
9939;DHT22;5008;50.656;7.188;2023-06-22T16:08:09;21.10;99.90
9939;DHT22;5008;50.656;7.188;2023-06-22T16:10:38;21.10;99.90
9939;DHT22;5008;50.656;7.188;2023-06-22T16:13:06;21.00;99.90
9939;DHT22;5008;50.656;7.188;2023-06-22T16:15:33;21.10;99.90
9939;DHT22;5008;50.656;7.188;2023-06-22T16:18:00;21.00;99.90
9939;DHT22;5008;50.656;7.188;2023-06-22T16:20:26;21.00;99.90
9939;DHT22;5008;50.656;7.188;2023-06-22T16:22:53;21.00;99.90
9939;DHT22;5008;50.656;7.188;2023-06-22T16:25:20;21.00;99.90
9939;DHT22;5008;50.656;7.188;2023-06-22T16:27:47;21.00;99.90
9939;DHT22;5008;50.656;7.188;2023-06-22T16:30:15;21.10;99.90
9939;DHT22;5008;50.656;7.188;2023-06-22T16:32:50;21.10;99.90
9939;DHT22;5008;50.656;7.188;2023-06-22T16:35:17;21.10;99.90
9939;DHT22;5008;50.656;7.188;2023-06-22T16:37:44;21.10;99.90
9939;DHT22;5008;50.656;7.188;2023-06-22T16:40:11;21.10;99.90
9939;DHT22;5008;50.656;7.188;2023-06-22T16:42:38;21.20;99.90
9939;DHT22;5008;50.656;7.188;2023-06-22T16:45:05;21.20;99.90
9939;DHT22;5008;50.656;7.188;2023-06-22T16:47:34;21.30;99.90
9939;DHT22;5008;50.656;7.188;2023-06-22T16:50:01;21.30;99.90
9939;DHT22;5008;50.656;7.188;2023-06-22T16:52:28;21.40;99.90
9939;DHT22;5008;50.656;7.188;2023-06-22T16:54:55;21.40;99.90
9939;DHT22;5008;50.656;7.188;2023-06-22T16:57:23;21.50;99.90
9939;DHT22;5008;50.656;7.188;2023-06-22T16:59:52;21.50;99.90
9939;DHT22;5008;50.656;7.188;2023-06-22T17:02:19;21.50;99.90
9939;DHT22;5008;50.656;7.188;2023-06-22T17:04:52;21.60;99.90
9939;DHT22;5008;50.656;7.188;2023-06-22T17:07:20;21.50;99.90
9939;DHT22;5008;50.656;7.188;2023-06-22T17:09:48;21.60;99.90
9939;DHT22;5008;50.656;7.188;2023-06-22T17:12:16;21.60;99.90
9939;DHT22;5008;50.656;7.188;2023-06-22T17:14:44;21.60;99.90
9939;DHT22;5008;50.656;7.188;2023-06-22T17:17:15;21.60;99.90
9939;DHT22;5008;50.656;7.188;2023-06-22T17:19:42;21.60;99.90
9939;DHT22;5008;50.656;7.188;2023-06-22T17:22:10;21.60;99.90
9939;DHT22;5008;50.656;7.188;2023-06-22T17:24:39;21.60;99.90
9939;DHT22;5008;50.656;7.188;2023-06-22T17:27:07;21.60;99.90
9939;DHT22;5008;50.656;7.188;2023-06-22T17:29:33;21.60;99.90
9939;DHT22;5008;50.656;7.188;2023-06-22T17:32:01;21.60;99.90
9939;DHT22;5008;50.656;7.188;2023-06-22T17:34:29;21.60;99.90
9939;DHT22;5008;50.656;7.188;2023-06-22T17:36:57;21.60;99.90
9939;DHT22;5008;50.656;7.188;2023-06-22T17:39:26;21.50;99.90
9939;DHT22;5008;50.656;7.188;2023-06-22T17:41:54;21.60;99.90
9939;DHT22;5008;50.656;7.188;2023-06-22T17:44:22;21.60;99.90
9939;DHT22;5008;50.656;7.188;2023-06-22T17:46:51;21.60;99.90
9939;DHT22;5008;50.656;7.188;2023-06-22T17:49:18;21.60;99.90
9939;DHT22;5008;50.656;7.188;2023-06-22T17:51:45;21.60;99.90
9939;DHT22;5008;50.656;7.188;2023-06-22T17:54:16;21.50;99.90
9939;DHT22;5008;50.656;7.188;2023-06-22T17:56:47;21.50;99.90
9939;DHT22;5008;50.656;7.188;2023-06-22T17:59:15;21.60;99.90
9939;DHT22;5008;50.656;7.188;2023-06-22T18:01:43;21.60;99.90
9939;DHT22;5008;50.656;7.188;2023-06-22T18:04:12;21.50;99.90
9939;DHT22;5008;50.656;7.188;2023-06-22T18:06:40;21.60;99.90
9939;DHT22;5008;50.656;7.188;2023-06-22T18:09:09;21.50;99.90
9939;DHT22;5008;50.656;7.188;2023-06-22T18:11:43;21.50;99.90
9939;DHT22;5008;50.656;7.188;2023-06-22T18:14:13;21.60;99.90
9939;DHT22;5008;50.656;7.188;2023-06-22T18:16:42;21.60;99.90
9939;DHT22;5008;50.656;7.188;2023-06-22T18:19:09;21.50;99.90
9939;DHT22;5008;50.656;7.188;2023-06-22T18:21:37;21.60;99.90
9939;DHT22;5008;50.656;7.188;2023-06-22T18:24:05;21.50;99.90
9939;DHT22;5008;50.656;7.188;2023-06-22T18:26:32;21.50;99.90
9939;DHT22;5008;50.656;7.188;2023-06-22T18:29:00;21.60;99.90
9939;DHT22;5008;50.656;7.188;2023-06-22T18:31:27;21.60;99.90
9939;DHT22;5008;50.656;7.188;2023-06-22T18:33:57;21.60;99.90
9939;DHT22;5008;50.656;7.188;2023-06-22T18:36:26;21.60;99.90
9939;DHT22;5008;50.656;7.188;2023-06-22T18:38:54;21.60;99.90
9939;DHT22;5008;50.656;7.188;2023-06-22T18:41:33;21.60;99.90
9939;DHT22;5008;50.656;7.188;2023-06-22T18:44:02;21.60;99.90
9939;DHT22;5008;50.656;7.188;2023-06-22T18:46:34;21.60;99.90
9939;DHT22;5008;50.656;7.188;2023-06-22T18:49:03;21.60;99.90
9939;DHT22;5008;50.656;7.188;2023-06-22T18:51:50;21.60;99.90
9939;DHT22;5008;50.656;7.188;2023-06-22T18:54:23;21.70;99.90
9939;DHT22;5008;50.656;7.188;2023-06-22T18:56:55;21.70;99.90
9939;DHT22;5008;50.656;7.188;2023-06-22T18:59:46;21.70;99.90
9939;DHT22;5008;50.656;7.188;2023-06-22T19:02:14;21.70;99.90
9939;DHT22;5008;50.656;7.188;2023-06-22T19:04:43;21.70;99.90
9939;DHT22;5008;50.656;7.188;2023-06-22T19:07:10;21.70;99.90
9939;DHT22;5008;50.656;7.188;2023-06-22T19:09:38;21.70;99.90
9939;DHT22;5008;50.656;7.188;2023-06-22T19:12:22;21.70;99.90
9939;DHT22;5008;50.656;7.188;2023-06-22T19:15:11;21.70;99.90
9939;DHT22;5008;50.656;7.188;2023-06-22T19:17:41;21.60;99.90
9939;DHT22;5008;50.656;7.188;2023-06-22T19:20:11;21.40;99.90
9939;DHT22;5008;50.656;7.188;2023-06-22T19:22:54;21.30;99.90
9939;DHT22;5008;50.656;7.188;2023-06-22T19:25:25;21.20;99.90
9939;DHT22;5008;50.656;7.188;2023-06-22T19:27:53;21.10;99.90
9939;DHT22;5008;50.656;7.188;2023-06-22T19:30:23;20.90;99.90
9939;DHT22;5008;50.656;7.188;2023-06-22T19:32:50;20.80;99.90
9939;DHT22;5008;50.656;7.188;2023-06-22T19:35:18;20.70;99.90
9939;DHT22;5008;50.656;7.188;2023-06-22T19:37:46;20.70;99.90
9939;DHT22;5008;50.656;7.188;2023-06-22T19:40:16;20.60;99.90
9939;DHT22;5008;50.656;7.188;2023-06-22T19:42:44;20.40;99.90
9939;DHT22;5008;50.656;7.188;2023-06-22T19:45:15;20.30;99.90
9939;DHT22;5008;50.656;7.188;2023-06-22T19:47:44;20.20;99.90
9939;DHT22;5008;50.656;7.188;2023-06-22T19:50:12;20.20;99.90
9939;DHT22;5008;50.656;7.188;2023-06-22T19:52:41;20.10;99.90
9939;DHT22;5008;50.656;7.188;2023-06-22T19:55:09;20.10;99.90
9939;DHT22;5008;50.656;7.188;2023-06-22T19:57:39;20.00;99.90
9939;DHT22;5008;50.656;7.188;2023-06-22T20:00:08;20.00;99.90
9939;DHT22;5008;50.656;7.188;2023-06-22T20:02:41;20.00;99.90
9939;DHT22;5008;50.656;7.188;2023-06-22T20:05:11;19.90;99.90
9939;DHT22;5008;50.656;7.188;2023-06-22T20:07:41;19.80;99.90
9939;DHT22;5008;50.656;7.188;2023-06-22T20:10:11;19.80;99.90